SWA6299 SVMI-KFLL
Flight info
| Callsign | SWA6299 |
|---|---|
| Flight time | 2h 48m |
| Altitude | 34000 |
| Route | MARES1 MARES DCT DUSAN/N0471F360 UA315 PAP UL218 COQUI DCT BORDO OLAHS3 |
| Aircraft | B738/M-SDE2E3FGHIRWXY/LB1 |
Departure
| Time | 2026-05-06 23:54 |
|---|---|
| Airport | Maiquetía Simón Bolívar International Airport (SVMI) |
Arrival
| Time | 2026-05-07 02:42 |
|---|---|
| Airport | Fort Lauderdale Hollywood International Airport (KFLL) |
| Time | Latitude | Longitude | Altitude | Speed | Heading |
|---|---|---|---|---|---|
| 2026-05-06 23:26 | 10.59835 | -67.00398 | 246 ft | 0 kts | 178° |
| 2026-05-06 23:45 | 10.59843 | -67.00398 | 245 ft | 2 kts | 178° |
| 2026-05-06 23:45 | 10.59858 | -67.00399 | 245 ft | 2 kts | 178° |
| 2026-05-06 23:46 | 10.59873 | -67.00400 | 245 ft | 2 kts | 178° |
| 2026-05-06 23:46 | 10.59888 | -67.00400 | 244 ft | 2 kts | 192° |
| 2026-05-06 23:46 | 10.59901 | -67.00394 | 244 ft | 2 kts | 212° |
| 2026-05-06 23:46 | 10.59913 | -67.00384 | 244 ft | 2 kts | 233° |
| 2026-05-06 23:47 | 10.59920 | -67.00371 | 244 ft | 2 kts | 254° |
| 2026-05-06 23:47 | 10.59922 | -67.00361 | 244 ft | 0 kts | 267° |
| 2026-05-06 23:47 | 10.59922 | -67.00354 | 244 ft | 0 kts | 270° |
| 2026-05-06 23:49 | 10.59930 | -67.00376 | 243 ft | 8 kts | 302° |
| 2026-05-06 23:49 | 10.59973 | -67.00440 | 243 ft | 12 kts | 298° |
| 2026-05-06 23:49 | 10.59996 | -67.00526 | 242 ft | 13 kts | 274° |
| 2026-05-06 23:50 | 10.59995 | -67.00620 | 240 ft | 14 kts | 268° |
| 2026-05-06 23:50 | 10.59988 | -67.00825 | 236 ft | 14 kts | 269° |
| 2026-05-06 23:50 | 10.59985 | -67.00923 | 234 ft | 13 kts | 268° |
| 2026-05-06 23:51 | 10.59981 | -67.01022 | 231 ft | 14 kts | 268° |
| 2026-05-06 23:51 | 10.59978 | -67.01126 | 227 ft | 15 kts | 268° |
| 2026-05-06 23:51 | 10.60003 | -67.01224 | 223 ft | 15 kts | 324° |
| 2026-05-06 23:51 | 10.60095 | -67.01246 | 224 ft | 12 kts | 356° |
| 2026-05-06 23:52 | 10.60175 | -67.01250 | 226 ft | 11 kts | 358° |
| 2026-05-06 23:52 | 10.60243 | -67.01252 | 229 ft | 8 kts | 358° |
| 2026-05-06 23:52 | 10.60309 | -67.01254 | 230 ft | 10 kts | 358° |
| 2026-05-06 23:52 | 10.60371 | -67.01243 | 232 ft | 6 kts | 47° |
| 2026-05-06 23:53 | 10.60381 | -67.01201 | 234 ft | 12 kts | 88° |
| 2026-05-06 23:53 | 10.60394 | -67.00824 | 240 ft | 92 kts | 88° |
| 2026-05-06 23:53 | 10.60426 | -66.99918 | 223 ft | 161 kts | 87° |
| 2026-05-06 23:53 | 10.60505 | -66.98671 | 564 ft | 186 kts | 86° |
| 2026-05-06 23:54 | 10.60566 | -66.97366 | 1343 ft | 187 kts | 88° |
| 2026-05-06 23:54 | 10.60618 | -66.95988 | 1737 ft | 206 kts | 88° |
| 2026-05-06 23:54 | 10.60944 | -66.94479 | 1953 ft | 235 kts | 63° |
| 2026-05-06 23:54 | 10.62061 | -66.93246 | 2675 ft | 246 kts | 31° |
| 2026-05-06 23:55 | 10.63712 | -66.92699 | 3340 ft | 263 kts | 4° |
| 2026-05-06 23:55 | 10.65529 | -66.92997 | 3958 ft | 278 kts | 338° |
| 2026-05-06 23:55 | 10.67125 | -66.94173 | 4057 ft | 294 kts | 310° |
| 2026-05-06 23:55 | 10.68405 | -66.95730 | 5159 ft | 289 kts | 316° |
| 2026-05-06 23:56 | 10.70083 | -66.96828 | 6105 ft | 289 kts | 339° |
| 2026-05-06 23:56 | 10.71903 | -66.97614 | 7073 ft | 289 kts | 333° |
| 2026-05-06 23:56 | 10.73631 | -66.98653 | 7907 ft | 293 kts | 328° |
| 2026-05-06 23:56 | 10.75332 | -66.99787 | 8732 ft | 296 kts | 327° |
| 2026-05-06 23:57 | 10.77036 | -67.00937 | 9508 ft | 300 kts | 327° |
| 2026-05-06 23:57 | 10.78781 | -67.02132 | 10271 ft | 305 kts | 326° |
| 2026-05-06 23:57 | 10.80591 | -67.03384 | 10456 ft | 330 kts | 326° |
| 2026-05-06 23:57 | 10.82544 | -67.04742 | 10732 ft | 349 kts | 326° |
| 2026-05-06 23:58 | 10.84564 | -67.06149 | 11311 ft | 357 kts | 326° |
| 2026-05-06 23:58 | 10.86600 | -67.07569 | 11959 ft | 362 kts | 326° |
| 2026-05-06 23:58 | 10.88673 | -67.09016 | 12629 ft | 366 kts | 326° |
| 2026-05-06 23:58 | 10.90798 | -67.10499 | 13304 ft | 369 kts | 326° |
| 2026-05-06 23:59 | 10.92910 | -67.11974 | 13953 ft | 372 kts | 326° |
| 2026-05-06 23:59 | 10.95029 | -67.13454 | 14577 ft | 376 kts | 326° |
| 2026-05-06 23:59 | 10.97180 | -67.14957 | 15195 ft | 379 kts | 326° |
| 2026-05-06 23:59 | 10.99384 | -67.16496 | 15789 ft | 383 kts | 326° |
| 2026-05-07 00:00 | 11.01563 | -67.18020 | 16409 ft | 385 kts | 326° |
| 2026-05-07 00:00 | 11.03780 | -67.19569 | 16981 ft | 388 kts | 326° |
| 2026-05-07 00:00 | 11.06001 | -67.21123 | 17539 ft | 391 kts | 326° |
| 2026-05-07 00:00 | 11.07490 | -67.22163 | 17900 ft | 393 kts | 326° |
| 2026-05-07 00:01 | 11.10472 | -67.24249 | 18591 ft | 397 kts | 326° |
| 2026-05-07 00:01 | 11.12750 | -67.25844 | 19096 ft | 400 kts | 326° |
| 2026-05-07 00:01 | 11.15054 | -67.27455 | 19586 ft | 403 kts | 326° |
| 2026-05-07 00:01 | 11.17370 | -67.29076 | 20066 ft | 406 kts | 326° |
| 2026-05-07 00:02 | 11.19685 | -67.30697 | 20526 ft | 409 kts | 326° |
| 2026-05-07 00:02 | 11.22031 | -67.32340 | 20974 ft | 412 kts | 326° |
| 2026-05-07 00:02 | 11.24392 | -67.33993 | 21410 ft | 415 kts | 326° |
| 2026-05-07 00:02 | 11.26784 | -67.35668 | 21833 ft | 417 kts | 326° |
| 2026-05-07 00:03 | 11.29174 | -67.37343 | 22244 ft | 420 kts | 326° |
| 2026-05-07 00:03 | 11.31570 | -67.39022 | 22637 ft | 423 kts | 326° |
| 2026-05-07 00:03 | 11.33987 | -67.40716 | 23021 ft | 425 kts | 326° |
| 2026-05-07 00:03 | 11.36431 | -67.42429 | 23395 ft | 428 kts | 326° |
| 2026-05-07 00:04 | 11.38871 | -67.44140 | 23754 ft | 430 kts | 326° |
| 2026-05-07 00:04 | 11.41361 | -67.45886 | 24109 ft | 433 kts | 326° |
| 2026-05-07 00:04 | 11.43828 | -67.47617 | 24455 ft | 435 kts | 326° |
| 2026-05-07 00:04 | 11.46328 | -67.49371 | 24792 ft | 437 kts | 326° |
| 2026-05-07 00:05 | 11.48825 | -67.51123 | 25122 ft | 439 kts | 326° |
| 2026-05-07 00:05 | 11.51343 | -67.52891 | 25443 ft | 442 kts | 326° |
| 2026-05-07 00:05 | 11.53852 | -67.54652 | 25753 ft | 444 kts | 326° |
| 2026-05-07 00:05 | 11.56413 | -67.56451 | 26064 ft | 446 kts | 326° |
| 2026-05-07 00:06 | 11.58971 | -67.58248 | 26361 ft | 448 kts | 326° |
| 2026-05-07 00:06 | 11.61535 | -67.60050 | 26652 ft | 450 kts | 326° |
| 2026-05-07 00:06 | 11.64092 | -67.61847 | 26936 ft | 452 kts | 326° |
| 2026-05-07 00:06 | 11.66672 | -67.63660 | 27211 ft | 453 kts | 326° |
| 2026-05-07 00:07 | 11.69286 | -67.65498 | 27484 ft | 455 kts | 326° |
| 2026-05-07 00:07 | 11.71890 | -67.67329 | 27746 ft | 457 kts | 326° |
| 2026-05-07 00:07 | 11.74504 | -67.69167 | 28000 ft | 459 kts | 326° |
| 2026-05-07 00:07 | 11.77113 | -67.71004 | 28247 ft | 461 kts | 326° |
| 2026-05-07 00:08 | 11.79732 | -67.72846 | 28488 ft | 462 kts | 326° |
| 2026-05-07 00:08 | 11.82397 | -67.74722 | 28724 ft | 464 kts | 326° |
| 2026-05-07 00:08 | 11.85045 | -67.76586 | 28954 ft | 466 kts | 326° |
| 2026-05-07 00:08 | 11.87719 | -67.78469 | 29178 ft | 467 kts | 326° |
| 2026-05-07 00:09 | 11.90356 | -67.80326 | 29391 ft | 469 kts | 326° |
| 2026-05-07 00:09 | 11.93063 | -67.82233 | 29606 ft | 470 kts | 326° |
| 2026-05-07 00:09 | 11.95745 | -67.84124 | 29812 ft | 472 kts | 326° |
| 2026-05-07 00:09 | 11.98440 | -67.86024 | 30011 ft | 473 kts | 326° |
| 2026-05-07 00:10 | 12.01150 | -67.87934 | 30207 ft | 475 kts | 326° |
| 2026-05-07 00:10 | 12.03856 | -67.89843 | 30394 ft | 476 kts | 326° |
| 2026-05-07 00:10 | 12.05655 | -67.91112 | 30515 ft | 477 kts | 326° |
| 2026-05-07 00:10 | 12.09307 | -67.93688 | 30754 ft | 479 kts | 326° |
| 2026-05-07 00:11 | 12.12031 | -67.95610 | 30923 ft | 480 kts | 326° |
| 2026-05-07 00:11 | 12.14787 | -67.97556 | 31089 ft | 481 kts | 326° |
| 2026-05-07 00:11 | 12.17517 | -67.99484 | 31250 ft | 483 kts | 326° |
| 2026-05-07 00:11 | 12.20272 | -68.01430 | 31404 ft | 484 kts | 326° |
| 2026-05-07 00:12 | 12.23034 | -68.03381 | 31710 ft | 481 kts | 326° |
| 2026-05-07 00:12 | 12.25771 | -68.05316 | 31961 ft | 480 kts | 326° |
| 2026-05-07 00:12 | 12.28482 | -68.07232 | 32169 ft | 480 kts | 326° |
| 2026-05-07 00:12 | 12.31215 | -68.09164 | 32402 ft | 479 kts | 326° |
| 2026-05-07 00:13 | 12.33958 | -68.11104 | 32620 ft | 479 kts | 326° |
| 2026-05-07 00:13 | 12.36706 | -68.13048 | 32830 ft | 478 kts | 326° |
| 2026-05-07 00:13 | 12.39413 | -68.14963 | 33036 ft | 478 kts | 326° |
| 2026-05-07 00:13 | 12.42132 | -68.16888 | 33232 ft | 477 kts | 326° |
| 2026-05-07 00:14 | 12.44870 | -68.18825 | 33434 ft | 477 kts | 326° |
| 2026-05-07 00:14 | 12.47588 | -68.20750 | 33631 ft | 477 kts | 326° |
| 2026-05-07 00:14 | 12.50274 | -68.22653 | 33818 ft | 476 kts | 326° |
| 2026-05-07 00:14 | 12.52984 | -68.24573 | 34008 ft | 476 kts | 326° |
| 2026-05-07 00:15 | 12.55721 | -68.26513 | 34195 ft | 476 kts | 326° |
| 2026-05-07 00:15 | 12.58431 | -68.28434 | 34376 ft | 475 kts | 326° |
| 2026-05-07 00:15 | 12.61129 | -68.30347 | 34540 ft | 475 kts | 326° |
| 2026-05-07 00:15 | 12.63838 | -68.32268 | 34717 ft | 475 kts | 326° |
| 2026-05-07 00:16 | 12.66544 | -68.34187 | 34888 ft | 475 kts | 326° |
| 2026-05-07 00:16 | 12.69234 | -68.36097 | 35053 ft | 474 kts | 326° |
| 2026-05-07 00:16 | 12.71956 | -68.38029 | 35222 ft | 474 kts | 326° |
| 2026-05-07 00:16 | 12.74633 | -68.39929 | 35382 ft | 474 kts | 326° |
| 2026-05-07 00:17 | 12.77333 | -68.41847 | 35541 ft | 473 kts | 326° |
| 2026-05-07 00:17 | 12.80049 | -68.43776 | 35698 ft | 473 kts | 326° |
| 2026-05-07 00:17 | 12.82741 | -68.45689 | 35851 ft | 473 kts | 326° |
| 2026-05-07 00:17 | 12.85421 | -68.47594 | 35965 ft | 473 kts | 326° |
| 2026-05-07 00:18 | 12.90851 | -68.51455 | 35969 ft | 475 kts | 326° |
| 2026-05-07 00:18 | 12.96243 | -68.55291 | 35970 ft | 472 kts | 326° |
| 2026-05-07 00:19 | 13.01608 | -68.59109 | 35970 ft | 472 kts | 326° |
| 2026-05-07 00:19 | 13.06981 | -68.62936 | 35971 ft | 472 kts | 326° |
| 2026-05-07 00:20 | 13.12343 | -68.66756 | 35971 ft | 473 kts | 326° |
| 2026-05-07 00:20 | 13.17714 | -68.70585 | 35972 ft | 472 kts | 326° |
| 2026-05-07 00:21 | 13.23101 | -68.74427 | 35972 ft | 472 kts | 326° |
| 2026-05-07 00:21 | 13.28494 | -68.78275 | 35973 ft | 472 kts | 326° |
| 2026-05-07 00:22 | 13.33860 | -68.82107 | 35974 ft | 472 kts | 326° |
| 2026-05-07 00:22 | 13.39251 | -68.85959 | 35974 ft | 472 kts | 326° |
| 2026-05-07 00:23 | 13.44630 | -68.89803 | 35975 ft | 472 kts | 326° |
| 2026-05-07 00:23 | 13.49996 | -68.93642 | 35976 ft | 472 kts | 326° |
| 2026-05-07 00:24 | 13.55359 | -68.97480 | 35972 ft | 473 kts | 326° |
| 2026-05-07 00:24 | 13.60737 | -69.01331 | 35965 ft | 472 kts | 326° |
| 2026-05-07 00:25 | 13.66091 | -69.05167 | 35965 ft | 472 kts | 326° |
| 2026-05-07 00:25 | 13.71484 | -69.09032 | 35966 ft | 472 kts | 326° |
| 2026-05-07 00:26 | 13.76864 | -69.12892 | 35966 ft | 472 kts | 326° |
| 2026-05-07 00:26 | 13.82238 | -69.16749 | 35967 ft | 472 kts | 326° |
| 2026-05-07 00:27 | 13.87579 | -69.20584 | 35968 ft | 472 kts | 326° |
| 2026-05-07 00:27 | 13.92961 | -69.24451 | 35969 ft | 472 kts | 326° |
| 2026-05-07 00:28 | 13.98339 | -69.28317 | 35970 ft | 472 kts | 326° |
| 2026-05-07 00:28 | 14.03686 | -69.32163 | 35971 ft | 472 kts | 326° |
| 2026-05-07 00:29 | 14.09076 | -69.36043 | 35972 ft | 472 kts | 326° |
| 2026-05-07 00:30 | 14.19806 | -69.43771 | 35974 ft | 472 kts | 326° |
| 2026-05-07 00:30 | 14.25170 | -69.47639 | 35976 ft | 472 kts | 326° |
| 2026-05-07 00:31 | 14.30503 | -69.51486 | 35977 ft | 472 kts | 326° |
| 2026-05-07 00:31 | 14.35861 | -69.55353 | 35979 ft | 472 kts | 326° |
| 2026-05-07 00:32 | 14.41253 | -69.59248 | 35980 ft | 472 kts | 326° |
| 2026-05-07 00:32 | 14.46607 | -69.63118 | 35982 ft | 472 kts | 326° |
| 2026-05-07 00:33 | 14.51962 | -69.66991 | 35984 ft | 472 kts | 325° |
| 2026-05-07 00:33 | 14.57338 | -69.70880 | 35979 ft | 472 kts | 325° |
| 2026-05-07 00:34 | 14.62693 | -69.74757 | 35981 ft | 472 kts | 325° |
| 2026-05-07 00:34 | 14.68048 | -69.78637 | 35982 ft | 472 kts | 325° |
| 2026-05-07 00:35 | 14.73385 | -69.82506 | 35984 ft | 472 kts | 325° |
| 2026-05-07 00:35 | 14.78745 | -69.86393 | 35986 ft | 472 kts | 325° |
| 2026-05-07 00:36 | 14.84109 | -69.90286 | 35988 ft | 472 kts | 325° |
| 2026-05-07 00:36 | 14.89463 | -69.94174 | 35990 ft | 472 kts | 325° |
| 2026-05-07 00:37 | 14.94800 | -69.98052 | 35992 ft | 472 kts | 325° |
| 2026-05-07 00:37 | 15.00168 | -70.01955 | 35982 ft | 472 kts | 325° |
| 2026-05-07 00:38 | 15.05533 | -70.05859 | 35985 ft | 472 kts | 325° |
| 2026-05-07 00:38 | 15.10874 | -70.09748 | 35987 ft | 472 kts | 325° |
| 2026-05-07 00:39 | 15.16208 | -70.13633 | 35989 ft | 472 kts | 325° |
| 2026-05-07 00:39 | 15.21555 | -70.17531 | 35995 ft | 472 kts | 325° |
| 2026-05-07 00:40 | 15.26917 | -70.21442 | 35998 ft | 472 kts | 325° |
| 2026-05-07 00:40 | 15.32276 | -70.25353 | 36000 ft | 472 kts | 325° |
| 2026-05-07 00:41 | 15.37617 | -70.29254 | 36002 ft | 472 kts | 325° |
| 2026-05-07 00:41 | 15.42951 | -70.33152 | 36004 ft | 472 kts | 325° |
| 2026-05-07 00:42 | 15.48295 | -70.37060 | 36006 ft | 472 kts | 325° |
| 2026-05-07 00:42 | 15.53635 | -70.40967 | 36008 ft | 472 kts | 325° |
| 2026-05-07 00:43 | 15.58988 | -70.44887 | 36010 ft | 472 kts | 325° |
| 2026-05-07 00:43 | 15.64346 | -70.48812 | 36012 ft | 472 kts | 325° |
| 2026-05-07 00:44 | 15.69681 | -70.52724 | 36014 ft | 472 kts | 325° |
| 2026-05-07 00:44 | 15.75027 | -70.56646 | 36016 ft | 472 kts | 325° |
| 2026-05-07 00:45 | 15.80380 | -70.60576 | 36017 ft | 472 kts | 325° |
| 2026-05-07 00:45 | 15.85697 | -70.64482 | 36019 ft | 472 kts | 325° |
| 2026-05-07 00:46 | 15.91037 | -70.68407 | 36021 ft | 472 kts | 325° |
| 2026-05-07 00:46 | 15.96370 | -70.72328 | 36023 ft | 472 kts | 325° |
| 2026-05-07 00:47 | 16.01766 | -70.76234 | 36024 ft | 472 kts | 328° |
| 2026-05-07 00:47 | 16.07400 | -70.79644 | 36026 ft | 472 kts | 330° |
| 2026-05-07 00:48 | 16.12947 | -70.83012 | 36027 ft | 472 kts | 330° |
| 2026-05-07 00:48 | 16.18594 | -70.86486 | 36029 ft | 472 kts | 330° |
| 2026-05-07 00:49 | 16.24195 | -70.89930 | 36030 ft | 472 kts | 330° |
| 2026-05-07 00:49 | 16.29819 | -70.93398 | 36032 ft | 472 kts | 330° |
| 2026-05-07 00:50 | 16.35478 | -70.96892 | 36033 ft | 472 kts | 330° |
| 2026-05-07 00:50 | 16.41091 | -71.00363 | 36034 ft | 472 kts | 329° |
| 2026-05-07 00:51 | 16.46698 | -71.03832 | 36036 ft | 472 kts | 329° |
| 2026-05-07 00:51 | 16.52341 | -71.07327 | 36037 ft | 472 kts | 329° |
| 2026-05-07 00:52 | 16.57932 | -71.10791 | 36032 ft | 472 kts | 329° |
| 2026-05-07 00:52 | 16.63559 | -71.14281 | 36024 ft | 472 kts | 329° |
| 2026-05-07 00:53 | 16.69205 | -71.17785 | 36025 ft | 472 kts | 329° |
| 2026-05-07 00:53 | 16.74805 | -71.21262 | 36026 ft | 472 kts | 329° |
| 2026-05-07 00:54 | 16.80401 | -71.24741 | 36027 ft | 472 kts | 329° |
| 2026-05-07 00:54 | 16.86027 | -71.28239 | 36028 ft | 472 kts | 329° |
| 2026-05-07 00:55 | 16.91641 | -71.31733 | 36029 ft | 472 kts | 329° |
| 2026-05-07 00:55 | 16.97270 | -71.35241 | 36030 ft | 472 kts | 329° |
| 2026-05-07 00:56 | 17.02890 | -71.38747 | 36031 ft | 471 kts | 329° |
| 2026-05-07 00:56 | 17.08514 | -71.42258 | 36032 ft | 471 kts | 329° |
| 2026-05-07 00:57 | 17.14089 | -71.45740 | 36032 ft | 471 kts | 329° |
| 2026-05-07 00:57 | 17.19716 | -71.49256 | 36033 ft | 471 kts | 329° |
| 2026-05-07 00:58 | 17.25329 | -71.52763 | 36033 ft | 471 kts | 329° |
| 2026-05-07 00:58 | 17.30917 | -71.56257 | 36034 ft | 471 kts | 329° |
| 2026-05-07 00:59 | 17.39331 | -71.61523 | 36034 ft | 471 kts | 329° |
| 2026-05-07 01:00 | 17.44939 | -71.65037 | 36035 ft | 471 kts | 329° |
| 2026-05-07 01:00 | 17.50540 | -71.68548 | 36035 ft | 471 kts | 329° |
| 2026-05-07 01:01 | 17.56163 | -71.72076 | 36035 ft | 471 kts | 329° |
| 2026-05-07 01:01 | 17.61781 | -71.75597 | 36034 ft | 471 kts | 329° |
| 2026-05-07 01:02 | 17.67381 | -71.79107 | 36034 ft | 471 kts | 329° |
| 2026-05-07 01:02 | 17.72989 | -71.82627 | 36034 ft | 471 kts | 329° |
| 2026-05-07 01:03 | 17.78593 | -71.86146 | 36033 ft | 471 kts | 329° |
| 2026-05-07 01:03 | 17.84189 | -71.89664 | 36032 ft | 471 kts | 329° |
| 2026-05-07 01:04 | 17.89800 | -71.93192 | 36031 ft | 471 kts | 329° |
| 2026-05-07 01:04 | 17.95416 | -71.96661 | 36030 ft | 471 kts | 331° |
| 2026-05-07 01:05 | 18.01144 | -71.99940 | 36029 ft | 471 kts | 332° |
| 2026-05-07 01:05 | 18.06872 | -72.03259 | 36028 ft | 471 kts | 332° |
| 2026-05-07 01:06 | 18.12607 | -72.06592 | 36027 ft | 471 kts | 332° |
| 2026-05-07 01:06 | 18.18299 | -72.09903 | 36026 ft | 471 kts | 332° |
| 2026-05-07 01:07 | 18.24036 | -72.13245 | 36025 ft | 471 kts | 331° |
| 2026-05-07 01:07 | 18.29804 | -72.16472 | 36024 ft | 472 kts | 335° |
| 2026-05-07 01:08 | 18.35736 | -72.19379 | 36023 ft | 475 kts | 335° |
| 2026-05-07 01:08 | 18.41690 | -72.22370 | 36022 ft | 473 kts | 335° |
| 2026-05-07 01:09 | 18.47548 | -72.25324 | 36021 ft | 471 kts | 335° |
| 2026-05-07 01:09 | 18.53427 | -72.28302 | 36021 ft | 471 kts | 333° |
| 2026-05-07 01:10 | 18.58961 | -72.32021 | 36020 ft | 472 kts | 320° |
| 2026-05-07 01:10 | 18.63556 | -72.36867 | 36021 ft | 473 kts | 314° |
| 2026-05-07 01:11 | 18.68163 | -72.41814 | 36022 ft | 472 kts | 315° |
| 2026-05-07 01:11 | 18.72753 | -72.46725 | 36022 ft | 472 kts | 315° |
| 2026-05-07 01:12 | 18.77324 | -72.51650 | 36023 ft | 472 kts | 315° |
| 2026-05-07 01:12 | 18.81908 | -72.56593 | 36025 ft | 472 kts | 315° |
| 2026-05-07 01:13 | 18.86491 | -72.61546 | 36026 ft | 472 kts | 315° |
| 2026-05-07 01:13 | 18.91054 | -72.66482 | 36028 ft | 472 kts | 314° |
| 2026-05-07 01:14 | 18.95632 | -72.71439 | 36029 ft | 472 kts | 314° |
| 2026-05-07 01:14 | 19.00200 | -72.76390 | 36031 ft | 472 kts | 314° |
| 2026-05-07 01:15 | 19.04750 | -72.81334 | 36032 ft | 472 kts | 314° |
| 2026-05-07 01:15 | 19.09302 | -72.86284 | 36034 ft | 472 kts | 314° |
| 2026-05-07 01:16 | 19.13854 | -72.91238 | 36035 ft | 472 kts | 314° |
| 2026-05-07 01:16 | 19.18419 | -72.96210 | 36036 ft | 472 kts | 314° |
| 2026-05-07 01:17 | 19.22987 | -73.01191 | 36037 ft | 472 kts | 314° |
| 2026-05-07 01:17 | 19.27541 | -73.06159 | 36038 ft | 472 kts | 314° |
| 2026-05-07 01:18 | 19.32088 | -73.11124 | 36039 ft | 472 kts | 314° |
| 2026-05-07 01:18 | 19.36626 | -73.16085 | 36040 ft | 472 kts | 314° |
| 2026-05-07 01:19 | 19.41171 | -73.21057 | 36041 ft | 472 kts | 314° |
| 2026-05-07 01:19 | 19.45733 | -73.26051 | 36042 ft | 472 kts | 314° |
| 2026-05-07 01:20 | 19.50247 | -73.30999 | 36042 ft | 471 kts | 314° |
| 2026-05-07 01:20 | 19.54791 | -73.35980 | 36043 ft | 471 kts | 314° |
| 2026-05-07 01:21 | 19.59335 | -73.40964 | 36044 ft | 471 kts | 314° |
| 2026-05-07 01:21 | 19.63882 | -73.45958 | 36045 ft | 471 kts | 314° |
| 2026-05-07 01:22 | 19.68417 | -73.50943 | 36046 ft | 471 kts | 314° |
| 2026-05-07 01:22 | 19.72954 | -73.55933 | 36047 ft | 471 kts | 314° |
| 2026-05-07 01:23 | 19.77497 | -73.60933 | 36056 ft | 471 kts | 314° |
| 2026-05-07 01:23 | 19.82032 | -73.65910 | 36055 ft | 471 kts | 314° |
| 2026-05-07 01:24 | 19.86575 | -73.70898 | 36056 ft | 471 kts | 314° |
| 2026-05-07 01:24 | 19.91118 | -73.75892 | 36057 ft | 471 kts | 314° |
| 2026-05-07 01:25 | 19.95665 | -73.80895 | 36058 ft | 471 kts | 314° |
| 2026-05-07 01:25 | 20.00202 | -73.85892 | 36062 ft | 471 kts | 314° |
| 2026-05-07 01:26 | 20.04747 | -73.90903 | 36063 ft | 471 kts | 314° |
| 2026-05-07 01:26 | 20.09281 | -73.95906 | 36064 ft | 471 kts | 314° |
| 2026-05-07 01:27 | 20.13809 | -74.00906 | 36064 ft | 471 kts | 314° |
| 2026-05-07 01:27 | 20.18324 | -74.05898 | 36065 ft | 471 kts | 314° |
| 2026-05-07 01:28 | 20.22866 | -74.10925 | 36065 ft | 471 kts | 314° |
| 2026-05-07 01:28 | 20.27388 | -74.15933 | 36066 ft | 471 kts | 314° |
| 2026-05-07 01:29 | 20.31900 | -74.20936 | 36066 ft | 471 kts | 314° |
| 2026-05-07 01:29 | 20.36430 | -74.25963 | 36067 ft | 471 kts | 314° |
| 2026-05-07 01:30 | 20.40967 | -74.31003 | 36067 ft | 471 kts | 314° |
| 2026-05-07 01:30 | 20.45484 | -74.36025 | 36067 ft | 471 kts | 314° |
| 2026-05-07 01:31 | 20.49986 | -74.41034 | 36068 ft | 471 kts | 314° |
| 2026-05-07 01:31 | 20.54531 | -74.46097 | 36068 ft | 471 kts | 314° |
| 2026-05-07 01:32 | 20.59025 | -74.51107 | 36068 ft | 471 kts | 314° |
| 2026-05-07 01:32 | 20.63541 | -74.56145 | 36068 ft | 471 kts | 314° |
| 2026-05-07 01:33 | 20.68072 | -74.61207 | 36069 ft | 471 kts | 314° |
| 2026-05-07 01:33 | 20.72585 | -74.66252 | 36069 ft | 471 kts | 314° |
| 2026-05-07 01:34 | 20.77095 | -74.71298 | 36069 ft | 471 kts | 314° |
| 2026-05-07 01:34 | 20.81579 | -74.76318 | 36068 ft | 471 kts | 314° |
| 2026-05-07 01:35 | 20.86108 | -74.81396 | 36068 ft | 471 kts | 314° |
| 2026-05-07 01:35 | 20.90612 | -74.86449 | 36068 ft | 471 kts | 314° |
| 2026-05-07 01:36 | 20.95117 | -74.91508 | 36068 ft | 471 kts | 314° |
| 2026-05-07 01:36 | 20.99627 | -74.96577 | 36068 ft | 471 kts | 314° |
| 2026-05-07 01:37 | 21.04135 | -75.01650 | 36068 ft | 471 kts | 314° |
| 2026-05-07 01:37 | 21.08631 | -75.06713 | 36067 ft | 471 kts | 314° |
| 2026-05-07 01:38 | 21.13137 | -75.11792 | 36067 ft | 471 kts | 314° |
| 2026-05-07 01:38 | 21.17616 | -75.16846 | 36072 ft | 471 kts | 314° |
| 2026-05-07 01:39 | 21.22121 | -75.21933 | 36077 ft | 471 kts | 314° |
| 2026-05-07 01:39 | 21.26602 | -75.26999 | 36077 ft | 471 kts | 314° |
| 2026-05-07 01:40 | 21.31103 | -75.32091 | 36077 ft | 471 kts | 314° |
| 2026-05-07 01:40 | 21.35582 | -75.37165 | 36077 ft | 471 kts | 314° |
| 2026-05-07 01:41 | 21.40102 | -75.42287 | 36077 ft | 471 kts | 314° |
| 2026-05-07 01:41 | 21.44591 | -75.47381 | 36079 ft | 471 kts | 314° |
| 2026-05-07 01:42 | 21.49050 | -75.52444 | 36079 ft | 471 kts | 314° |
| 2026-05-07 01:42 | 21.53537 | -75.57545 | 36079 ft | 471 kts | 314° |
| 2026-05-07 01:43 | 21.58052 | -75.62682 | 36080 ft | 471 kts | 314° |
| 2026-05-07 01:43 | 21.62537 | -75.67790 | 36080 ft | 471 kts | 313° |
| 2026-05-07 01:44 | 21.67012 | -75.72893 | 36080 ft | 471 kts | 313° |
| 2026-05-07 01:44 | 21.71488 | -75.78001 | 36080 ft | 471 kts | 313° |
| 2026-05-07 01:45 | 21.75958 | -75.83107 | 36081 ft | 471 kts | 313° |
| 2026-05-07 01:45 | 21.80435 | -75.88226 | 36075 ft | 471 kts | 313° |
| 2026-05-07 01:46 | 21.84913 | -75.93353 | 36076 ft | 471 kts | 313° |
| 2026-05-07 01:46 | 21.89386 | -75.98478 | 36076 ft | 471 kts | 313° |
| 2026-05-07 01:47 | 21.93877 | -76.03629 | 36077 ft | 471 kts | 313° |
| 2026-05-07 01:47 | 21.98340 | -76.08752 | 36077 ft | 471 kts | 313° |
| 2026-05-07 01:48 | 22.02812 | -76.13891 | 36078 ft | 471 kts | 313° |
| 2026-05-07 01:48 | 22.07268 | -76.19017 | 36078 ft | 471 kts | 313° |
| 2026-05-07 01:49 | 22.11757 | -76.24186 | 36079 ft | 471 kts | 313° |
| 2026-05-07 01:49 | 22.16216 | -76.29324 | 36080 ft | 471 kts | 313° |
| 2026-05-07 01:50 | 22.20668 | -76.34461 | 36084 ft | 471 kts | 313° |
| 2026-05-07 01:50 | 22.25136 | -76.39621 | 36084 ft | 471 kts | 313° |
| 2026-05-07 01:51 | 22.29605 | -76.44788 | 36085 ft | 471 kts | 313° |
| 2026-05-07 01:51 | 22.34052 | -76.49933 | 36085 ft | 471 kts | 313° |
| 2026-05-07 01:52 | 22.38508 | -76.55094 | 36085 ft | 471 kts | 313° |
| 2026-05-07 01:52 | 22.42977 | -76.60275 | 36085 ft | 471 kts | 313° |
| 2026-05-07 01:53 | 22.47433 | -76.65447 | 36086 ft | 471 kts | 313° |
| 2026-05-07 01:53 | 22.51857 | -76.70586 | 36086 ft | 471 kts | 313° |
| 2026-05-07 01:54 | 22.56317 | -76.75773 | 36087 ft | 471 kts | 313° |
| 2026-05-07 01:54 | 22.60770 | -76.80956 | 36087 ft | 471 kts | 313° |
| 2026-05-07 01:55 | 22.65205 | -76.86124 | 36087 ft | 471 kts | 313° |
| 2026-05-07 01:55 | 22.69675 | -76.91339 | 36088 ft | 471 kts | 313° |
| 2026-05-07 01:56 | 22.74105 | -76.96511 | 36088 ft | 471 kts | 313° |
| 2026-05-07 01:56 | 22.78557 | -77.01714 | 36089 ft | 471 kts | 313° |
| 2026-05-07 01:57 | 22.83014 | -77.06930 | 36089 ft | 471 kts | 313° |
| 2026-05-07 01:57 | 22.87431 | -77.12104 | 36090 ft | 471 kts | 313° |
| 2026-05-07 01:58 | 22.91871 | -77.17310 | 36090 ft | 472 kts | 313° |
| 2026-05-07 01:58 | 22.96302 | -77.22522 | 36091 ft | 472 kts | 313° |
| 2026-05-07 01:59 | 23.00660 | -77.27792 | 36091 ft | 472 kts | 312° |
| 2026-05-07 01:59 | 23.05046 | -77.33105 | 36092 ft | 472 kts | 312° |
| 2026-05-07 02:00 | 23.09414 | -77.38382 | 36093 ft | 472 kts | 313° |
| 2026-05-07 02:00 | 23.13860 | -77.43600 | 36094 ft | 472 kts | 313° |
| 2026-05-07 02:01 | 23.18302 | -77.48795 | 36093 ft | 472 kts | 313° |
| 2026-05-07 02:01 | 23.22731 | -77.53999 | 36094 ft | 472 kts | 313° |
| 2026-05-07 02:02 | 23.27176 | -77.59225 | 36094 ft | 472 kts | 313° |
| 2026-05-07 02:02 | 23.31618 | -77.64459 | 36095 ft | 472 kts | 313° |
| 2026-05-07 02:03 | 23.36050 | -77.69696 | 36096 ft | 472 kts | 313° |
| 2026-05-07 02:03 | 23.40480 | -77.74937 | 36097 ft | 472 kts | 313° |
| 2026-05-07 02:04 | 23.44909 | -77.80180 | 36098 ft | 472 kts | 313° |
| 2026-05-07 02:04 | 23.49318 | -77.85407 | 36099 ft | 472 kts | 313° |
| 2026-05-07 02:05 | 23.53761 | -77.90678 | 36090 ft | 472 kts | 313° |
| 2026-05-07 02:05 | 23.58165 | -77.95908 | 36091 ft | 472 kts | 313° |
| 2026-05-07 02:06 | 23.62598 | -78.01179 | 36090 ft | 472 kts | 313° |
| 2026-05-07 02:06 | 23.67007 | -78.06427 | 36091 ft | 472 kts | 313° |
| 2026-05-07 02:07 | 23.71416 | -78.11682 | 36091 ft | 472 kts | 313° |
| 2026-05-07 02:07 | 23.78053 | -78.19601 | 36092 ft | 472 kts | 313° |
| 2026-05-07 02:08 | 23.82457 | -78.24862 | 36092 ft | 472 kts | 313° |
| 2026-05-07 02:08 | 23.86864 | -78.30135 | 36092 ft | 472 kts | 313° |
| 2026-05-07 02:09 | 23.91294 | -78.35438 | 36092 ft | 472 kts | 313° |
| 2026-05-07 02:09 | 23.95792 | -78.40616 | 36091 ft | 471 kts | 319° |
| 2026-05-07 02:10 | 24.01279 | -78.44365 | 36093 ft | 470 kts | 340° |
| 2026-05-07 02:10 | 24.07651 | -78.45814 | 36094 ft | 469 kts | 358° |
| 2026-05-07 02:11 | 24.14125 | -78.45758 | 36095 ft | 469 kts | 1° |
| 2026-05-07 02:11 | 24.20623 | -78.45731 | 36096 ft | 469 kts | 1° |
| 2026-05-07 02:12 | 24.27141 | -78.45709 | 36098 ft | 468 kts | 1° |
| 2026-05-07 02:12 | 24.33607 | -78.45672 | 36099 ft | 468 kts | 1° |
| 2026-05-07 02:13 | 24.40104 | -78.45636 | 36102 ft | 468 kts | 1° |
| 2026-05-07 02:13 | 24.46585 | -78.45611 | 36106 ft | 468 kts | 1° |
| 2026-05-07 02:14 | 24.49827 | -78.45608 | 35696 ft | 466 kts | 1° |
| 2026-05-07 02:14 | 24.53025 | -78.45604 | 34887 ft | 466 kts | 1° |
| 2026-05-07 02:14 | 24.56278 | -78.45598 | 34004 ft | 468 kts | 1° |
| 2026-05-07 02:14 | 24.59515 | -78.45591 | 33094 ft | 470 kts | 1° |
| 2026-05-07 02:15 | 24.62765 | -78.45584 | 32156 ft | 471 kts | 1° |
| 2026-05-07 02:15 | 24.66040 | -78.45578 | 31184 ft | 473 kts | 1° |
| 2026-05-07 02:15 | 24.69315 | -78.45571 | 30184 ft | 475 kts | 1° |
| 2026-05-07 02:15 | 24.72566 | -78.45564 | 29153 ft | 477 kts | 1° |
| 2026-05-07 02:16 | 24.75871 | -78.45557 | 28071 ft | 478 kts | 1° |
| 2026-05-07 02:16 | 24.79161 | -78.45551 | 27309 ft | 472 kts | 1° |
| 2026-05-07 02:16 | 24.82433 | -78.45544 | 26554 ft | 466 kts | 1° |
| 2026-05-07 02:16 | 24.85583 | -78.45538 | 26150 ft | 452 kts | 1° |
| 2026-05-07 02:17 | 24.88686 | -78.45534 | 26107 ft | 431 kts | 1° |
| 2026-05-07 02:17 | 24.91580 | -78.45547 | 26110 ft | 414 kts | 0° |
| 2026-05-07 02:17 | 24.94437 | -78.45565 | 26115 ft | 416 kts | 0° |
| 2026-05-07 02:17 | 24.97383 | -78.45581 | 26112 ft | 424 kts | 0° |
| 2026-05-07 02:18 | 25.00298 | -78.45595 | 26109 ft | 425 kts | 0° |
| 2026-05-07 02:18 | 25.03258 | -78.45610 | 26108 ft | 424 kts | 0° |
| 2026-05-07 02:18 | 25.06196 | -78.45625 | 26109 ft | 423 kts | 0° |
| 2026-05-07 02:18 | 25.09135 | -78.45640 | 26109 ft | 423 kts | 0° |
| 2026-05-07 02:19 | 25.12058 | -78.45654 | 26109 ft | 423 kts | 0° |
| 2026-05-07 02:19 | 25.15007 | -78.45668 | 26109 ft | 423 kts | 0° |
| 2026-05-07 02:19 | 25.17931 | -78.45682 | 26108 ft | 423 kts | 0° |
| 2026-05-07 02:19 | 25.20880 | -78.45697 | 26109 ft | 423 kts | 0° |
| 2026-05-07 02:20 | 25.23806 | -78.45711 | 26108 ft | 423 kts | 0° |
| 2026-05-07 02:20 | 25.26732 | -78.45725 | 26108 ft | 423 kts | 0° |
| 2026-05-07 02:20 | 25.29676 | -78.45742 | 26108 ft | 423 kts | 360° |
| 2026-05-07 02:20 | 25.32599 | -78.45988 | 26107 ft | 424 kts | 352° |
| 2026-05-07 02:21 | 25.35434 | -78.46743 | 26108 ft | 425 kts | 341° |
| 2026-05-07 02:21 | 25.38117 | -78.48106 | 26109 ft | 425 kts | 330° |
| 2026-05-07 02:21 | 25.40542 | -78.49965 | 26107 ft | 426 kts | 321° |
| 2026-05-07 02:21 | 25.42691 | -78.52252 | 26104 ft | 427 kts | 310° |
| 2026-05-07 02:22 | 25.44327 | -78.54966 | 26109 ft | 426 kts | 297° |
| 2026-05-07 02:22 | 25.45530 | -78.57935 | 26107 ft | 427 kts | 292° |
| 2026-05-07 02:22 | 25.46664 | -78.60951 | 25851 ft | 421 kts | 293° |
| 2026-05-07 02:22 | 25.47820 | -78.63901 | 25274 ft | 417 kts | 294° |
| 2026-05-07 02:23 | 25.48972 | -78.66817 | 24655 ft | 414 kts | 293° |
| 2026-05-07 02:23 | 25.50098 | -78.69710 | 24034 ft | 410 kts | 293° |
| 2026-05-07 02:23 | 25.51220 | -78.72616 | 23432 ft | 406 kts | 293° |
| 2026-05-07 02:23 | 25.52297 | -78.75412 | 23288 ft | 393 kts | 293° |
| 2026-05-07 02:24 | 25.53374 | -78.78213 | 22920 ft | 391 kts | 293° |
| 2026-05-07 02:24 | 25.54422 | -78.80943 | 22297 ft | 390 kts | 293° |
| 2026-05-07 02:24 | 25.55469 | -78.83682 | 21734 ft | 387 kts | 293° |
| 2026-05-07 02:24 | 25.56513 | -78.86413 | 21167 ft | 384 kts | 292° |
| 2026-05-07 02:25 | 25.57545 | -78.89116 | 20604 ft | 381 kts | 292° |
| 2026-05-07 02:25 | 25.58568 | -78.91798 | 20046 ft | 378 kts | 292° |
| 2026-05-07 02:25 | 25.59575 | -78.94443 | 19494 ft | 375 kts | 292° |
| 2026-05-07 02:25 | 25.60591 | -78.97113 | 18937 ft | 372 kts | 292° |
| 2026-05-07 02:26 | 25.61583 | -78.99721 | 18391 ft | 369 kts | 292° |
| 2026-05-07 02:26 | 25.62580 | -79.02345 | 17843 ft | 366 kts | 292° |
| 2026-05-07 02:26 | 25.63544 | -79.04889 | 17355 ft | 362 kts | 292° |
| 2026-05-07 02:26 | 25.64515 | -79.07472 | 16821 ft | 359 kts | 292° |
| 2026-05-07 02:27 | 25.65464 | -79.10001 | 16291 ft | 356 kts | 292° |
| 2026-05-07 02:27 | 25.66412 | -79.12528 | 15760 ft | 354 kts | 292° |
| 2026-05-07 02:27 | 25.67346 | -79.15017 | 15236 ft | 351 kts | 292° |
| 2026-05-07 02:27 | 25.68280 | -79.17506 | 14711 ft | 348 kts | 292° |
| 2026-05-07 02:28 | 25.69205 | -79.19975 | 14189 ft | 346 kts | 292° |
| 2026-05-07 02:28 | 25.70119 | -79.22414 | 13673 ft | 343 kts | 292° |
| 2026-05-07 02:28 | 25.71027 | -79.24840 | 13158 ft | 341 kts | 292° |
| 2026-05-07 02:28 | 25.71929 | -79.27250 | 12647 ft | 338 kts | 292° |
| 2026-05-07 02:29 | 25.72819 | -79.29630 | 12141 ft | 336 kts | 292° |
| 2026-05-07 02:29 | 25.73698 | -79.32010 | 11636 ft | 333 kts | 292° |
| 2026-05-07 02:29 | 25.74567 | -79.34386 | 11131 ft | 331 kts | 292° |
| 2026-05-07 02:29 | 25.75425 | -79.36726 | 10667 ft | 327 kts | 292° |
| 2026-05-07 02:30 | 25.76272 | -79.39033 | 10414 ft | 317 kts | 292° |
| 2026-05-07 02:30 | 25.77087 | -79.41255 | 10285 ft | 303 kts | 292° |
| 2026-05-07 02:30 | 25.77865 | -79.43378 | 10151 ft | 291 kts | 292° |
| 2026-05-07 02:30 | 25.78614 | -79.45425 | 10151 ft | 286 kts | 292° |
| 2026-05-07 02:31 | 25.79365 | -79.47476 | 10147 ft | 289 kts | 292° |
| 2026-05-07 02:31 | 25.80121 | -79.49543 | 9819 ft | 291 kts | 292° |
| 2026-05-07 02:31 | 25.80880 | -79.51619 | 9398 ft | 290 kts | 292° |
| 2026-05-07 02:31 | 25.81632 | -79.53677 | 9216 ft | 287 kts | 292° |
| 2026-05-07 02:32 | 25.82387 | -79.55743 | 9031 ft | 290 kts | 292° |
| 2026-05-07 02:32 | 25.83139 | -79.57802 | 8843 ft | 290 kts | 292° |
| 2026-05-07 02:32 | 25.83893 | -79.59868 | 8680 ft | 288 kts | 292° |
| 2026-05-07 02:32 | 25.84656 | -79.61905 | 8583 ft | 287 kts | 293° |
| 2026-05-07 02:33 | 25.85431 | -79.63945 | 8483 ft | 287 kts | 293° |
| 2026-05-07 02:33 | 25.86264 | -79.65990 | 8382 ft | 287 kts | 296° |
| 2026-05-07 02:33 | 25.87125 | -79.67956 | 8283 ft | 287 kts | 295° |
| 2026-05-07 02:33 | 25.87837 | -79.70033 | 8184 ft | 286 kts | 287° |
| 2026-05-07 02:34 | 25.88318 | -79.72183 | 8104 ft | 286 kts | 275° |
| 2026-05-07 02:34 | 25.88369 | -79.74377 | 8036 ft | 286 kts | 270° |
| 2026-05-07 02:34 | 25.88537 | -79.76583 | 7960 ft | 286 kts | 278° |
| 2026-05-07 02:34 | 25.88834 | -79.78773 | 7938 ft | 285 kts | 278° |
| 2026-05-07 02:35 | 25.89116 | -79.80941 | 7939 ft | 286 kts | 278° |
| 2026-05-07 02:35 | 25.89397 | -79.83111 | 7939 ft | 286 kts | 278° |
| 2026-05-07 02:35 | 25.89683 | -79.85306 | 7938 ft | 286 kts | 278° |
| 2026-05-07 02:35 | 25.89968 | -79.87491 | 7938 ft | 286 kts | 278° |
| 2026-05-07 02:36 | 25.90251 | -79.89662 | 7938 ft | 286 kts | 278° |
| 2026-05-07 02:36 | 25.90540 | -79.91866 | 7938 ft | 286 kts | 278° |
| 2026-05-07 02:36 | 25.90823 | -79.94035 | 7937 ft | 286 kts | 278° |
| 2026-05-07 02:36 | 25.91112 | -79.96236 | 7938 ft | 286 kts | 278° |
| 2026-05-07 02:37 | 25.91399 | -79.98418 | 7937 ft | 286 kts | 278° |
| 2026-05-07 02:37 | 25.91756 | -80.00572 | 7937 ft | 286 kts | 283° |
| 2026-05-07 02:37 | 25.92223 | -80.02741 | 7882 ft | 288 kts | 283° |
| 2026-05-07 02:37 | 25.92722 | -80.04940 | 7058 ft | 303 kts | 286° |
| 2026-05-07 02:38 | 25.93461 | -80.07133 | 6160 ft | 306 kts | 295° |
| 2026-05-07 02:38 | 25.94462 | -80.09201 | 5343 ft | 304 kts | 301° |
| 2026-05-07 02:38 | 25.95584 | -80.11103 | 4693 ft | 285 kts | 305° |
| 2026-05-07 02:38 | 25.96676 | -80.12792 | 4320 ft | 250 kts | 306° |
| 2026-05-07 02:39 | 25.97671 | -80.14309 | 3558 ft | 238 kts | 307° |
| 2026-05-07 02:39 | 25.98590 | -80.15754 | 2948 ft | 227 kts | 304° |
| 2026-05-07 02:39 | 25.99499 | -80.17100 | 2488 ft | 212 kts | 307° |
| 2026-05-07 02:39 | 26.00325 | -80.18381 | 2140 ft | 192 kts | 311° |
| 2026-05-07 02:40 | 26.01250 | -80.19354 | 1906 ft | 178 kts | 325° |
| 2026-05-07 02:40 | 26.02301 | -80.19933 | 1779 ft | 162 kts | 345° |
| 2026-05-07 02:40 | 26.03404 | -80.20214 | 1488 ft | 163 kts | 358° |
| 2026-05-07 02:40 | 26.04415 | -80.20012 | 1409 ft | 145 kts | 20° |
| 2026-05-07 02:41 | 26.05396 | -80.19649 | 926 ft | 154 kts | 22° |
| 2026-05-07 02:41 | 26.06364 | -80.19134 | 800 ft | 152 kts | 35° |
| 2026-05-07 02:41 | 26.07121 | -80.18354 | 645 ft | 146 kts | 54° |
| 2026-05-07 02:41 | 26.07586 | -80.17374 | 321 ft | 147 kts | 75° |
| 2026-05-07 02:42 | 26.07694 | -80.16243 | 36 ft | 149 kts | 92° |
| 2026-05-07 02:42 | 26.07686 | -80.15198 | 13 ft | 105 kts | 89° |
| 2026-05-07 02:42 | 26.07683 | -80.14635 | 13 ft | 42 kts | 90° |
| 2026-05-07 02:42 | 26.07638 | -80.14428 | 13 ft | 21 kts | 121° |
| 2026-05-07 02:43 | 26.07572 | -80.14295 | 13 ft | 17 kts | 114° |
| 2026-05-07 02:43 | 26.07502 | -80.14208 | 13 ft | 14 kts | 121° |
| 2026-05-07 02:43 | 26.07485 | -80.14111 | 13 ft | 11 kts | 92° |
| 2026-05-07 02:43 | 26.07486 | -80.14024 | 13 ft | 10 kts | 89° |
| 2026-05-07 02:44 | 26.07484 | -80.13949 | 13 ft | 9 kts | 93° |
| 2026-05-07 02:44 | 26.07476 | -80.13875 | 13 ft | 9 kts | 104° |
| 2026-05-07 02:44 | 26.07443 | -80.13836 | 13 ft | 6 kts | 163° |
| 2026-05-07 02:44 | 26.07415 | -80.13833 | 13 ft | 1 kts | 195° |
| 2026-05-07 02:45 | 26.07411 | -80.13834 | 13 ft | 0 kts | 199° |